Time;durP1;ratioP1;P1;durP2;ratioP2;P2;SDS_P1;SDS_P2;PMS_P1;PMS_P2;Temp;Humidity;BMP_temperature;BMP_pressure;BME280_temperature;BME280_humidity;BME280_pressure;Samples;Min_cycle;Max_cycle;Signal;HPM_P1;HPM_P2
2023/07/27 01:03:37;;;;;;;0.10;0.10;;;;;;;12.76;100.00;99762.97;6229103;22;20023;-87
2023/07/27 01:06:03;;;;;;;0.00;0.00;;;;;;;12.95;100.00;99803.56;6260748;22;20022;-87
2023/07/27 01:08:28;;;;;;;0.10;0.10;;;;;;;12.97;100.00;99794.75;6271561;22;20015;-87
2023/07/27 01:11:15;;;;;;;0.03;0.03;;;;;;;12.94;100.00;99795.69;6271700;22;20011;-87
2023/07/27 01:13:45;;;;;;;0.20;0.10;;;;;;;12.89;100.00;99804.63;6218739;22;20012;-87
2023/07/27 01:16:24;;;;;;;0.43;0.43;;;;;;;12.78;100.00;99782.75;6243465;22;20011;-87
2023/07/27 01:19:02;;;;;;;0.57;0.45;;;;;;;12.88;100.00;99787.16;6243007;22;20019;-87
2023/07/27 01:21:33;;;;;;;0.00;0.00;;;;;;;12.94;100.00;99784.56;6218281;22;20012;-87
2023/07/27 01:24:05;;;;;;;0.00;0.00;;;;;;;12.96;100.00;99782.06;6272006;22;20312;-86
2023/07/27 01:26:52;;;;;;;0.30;0.20;;;;;;;12.96;100.00;99782.84;6245423;22;20012;-87
2023/07/27 01:29:32;;;;;;;0.00;0.00;;;;;;;12.96;100.00;99782.84;6244483;22;20019;-87
2023/07/27 01:31:59;;;;;;;0.20;0.20;;;;;;;12.95;100.00;99783.28;6244068;22;20069;-87
2023/07/27 01:34:29;;;;;;;0.13;0.13;;;;;;;12.84;100.00;99764.25;6243057;22;20042;-88
2023/07/27 01:36:59;;;;;;;0.00;0.00;;;;;;;12.83;100.00;99778.59;6219921;22;20018;-87
2023/07/27 01:39:26;;;;;;;0.25;0.25;;;;;;;12.73;100.00;99777.03;6219621;22;20014;-87
2023/07/27 01:41:53;;;;;;;0.13;0.13;;;;;;;12.75;100.00;99789.25;6218537;22;20054;-87
2023/07/27 01:44:19;;;;;;;0.00;0.00;;;;;;;12.69;100.00;99779.19;6244285;22;20007;-87
2023/07/27 01:46:45;;;;;;;0.00;0.00;;;;;;;12.62;100.00;99774.66;6244508;22;20007;-87
2023/07/27 01:49:12;;;;;;;0.05;0.05;;;;;;;12.68;100.00;99788.75;6243233;22;20312;-87
2023/07/27 01:51:39;;;;;;;0.00;0.00;;;;;;;12.60;100.00;99768.78;6243952;22;20018;-87
2023/07/27 01:54:06;;;;;;;0.00;0.00;;;;;;;12.55;100.00;99786.84;6244394;22;20057;-87
2023/07/27 01:56:32;;;;;;;0.00;0.00;;;;;;;12.58;100.00;99793.50;6219339;22;20029;-87
2023/07/27 01:58:59;;;;;;;0.50;0.50;;;;;;;12.50;100.00;99789.44;6243872;22;20000;-87
2023/07/27 02:01:25;;;;;;;0.70;0.47;;;;;;;12.60;100.00;99796.63;6243983;22;20034;-87
2023/07/27 02:03:50;;;;;;;0.10;0.10;;;;;;;12.42;100.00;99782.59;6270363;22;20091;-87
2023/07/27 02:06:17;;;;;;;0.05;0.05;;;;;;;12.52;100.00;99803.69;6243410;22;20692;-87
2023/07/27 02:08:42;;;;;;;0.15;0.15;;;;;;;12.27;100.00;99781.59;6271441;22;20321;-87
2023/07/27 02:11:09;;;;;;;0.03;0.03;;;;;;;12.34;100.00;99804.34;6243641;22;20011;-87
2023/07/27 02:13:44;;;;;;;0.00;0.00;;;;;;;12.11;100.00;99786.13;6244956;22;20336;-87
2023/07/27 02:16:44;;;;;;;0.20;0.20;;;;;;;12.23;100.00;99808.75;6244318;22;20046;-87
2023/07/27 02:19:12;;;;;;;0.17;0.15;;;;;;;12.21;100.00;99822.34;6242957;22;20012;-87
2023/07/27 02:21:39;;;;;;;0.20;0.20;;;;;;;12.13;100.00;99811.47;6270870;22;20012;-87
2023/07/27 02:24:05;;;;;;;0.00;0.00;;;;;;;12.18;100.00;99828.81;6218690;22;20123;-88
2023/07/27 02:26:31;;;;;;;0.28;0.17;;;;;;;12.12;100.00;99826.63;6218893;22;20065;-88
2023/07/27 02:28:57;;;;;;;0.28;0.25;;;;;;;12.13;100.00;99824.63;6243605;22;20011;-88
2023/07/27 02:31:24;;;;;;;0.10;0.10;;;;;;;12.15;100.00;99831.28;6243977;22;20011;-88
2023/07/27 02:33:50;;;;;;;0.00;0.00;;;;;;;12.19;100.00;99844.25;6218532;22;20011;-88
2023/07/27 02:36:17;;;;;;;0.00;0.00;;;;;;;12.09;100.00;99849.75;6243203;22;20084;-88
2023/07/27 02:38:43;;;;;;;0.20;0.20;;;;;;;11.89;100.00;99818.69;6244309;22;20083;-89
2023/07/27 02:41:12;;;;;;;0.00;0.00;;;;;;;11.96;100.00;99842.72;6219173;22;20004;-88
2023/07/27 02:43:39;;;;;;;0.10;0.10;;;;;;;11.97;100.00;99858.91;6243995;22;20622;-88
2023/07/27 02:46:08;;;;;;;0.35;0.35;;;;;;;11.94;100.00;99859.81;6243474;22;20008;-88
2023/07/27 02:48:34;;;;;;;0.00;0.00;;;;;;;11.90;100.00;99855.63;6271278;22;20004;-88
2023/07/27 02:50:59;;;;;;;0.00;0.00;;;;;;;11.93;100.00;99872.16;6241703;22;20007;-88
2023/07/27 02:53:25;;;;;;;0.38;0.38;;;;;;;11.93;100.00;99871.41;6243804;22;20023;-88
2023/07/27 02:55:59;;;;;;;0.10;0.10;;;;;;;11.89;100.00;99885.41;6243801;22;20003;-88
2023/07/27 02:58:25;;;;;;;0.00;0.00;;;;;;;11.79;100.00;99861.56;6219192;22;20003;-89
2023/07/27 03:00:56;;;;;;;0.13;0.13;;;;;;;11.81;100.00;99872.97;6218528;22;20035;-88
2023/07/27 03:03:21;;;;;;;0.00;0.00;;;;;;;11.86;100.00;99880.75;6217930;22;20270;-88
2023/07/27 03:05:57;;;;;;;0.00;0.00;;;;;;;11.80;100.00;99876.22;6242089;22;20015;-88
2023/07/27 03:08:23;;;;;;;0.00;0.00;;;;;;;11.77;100.00;99883.44;6218812;22;20011;-88
2023/07/27 03:10:49;;;;;;;0.20;0.20;;;;;;;11.76;100.00;99890.25;6218820;22;20010;-88
2023/07/27 03:13:14;;;;;;;0.00;0.00;;;;;;;11.62;100.00;99877.56;6243903;22;20082;-88
2023/07/27 03:15:40;;;;;;;0.10;0.10;;;;;;;11.64;100.00;99891.03;6218272;22;20077;-88
2023/07/27 03:18:08;;;;;;;0.00;0.00;;;;;;;11.58;100.00;99887.25;6271234;22;20008;-88
2023/07/27 03:20:40;;;;;;;0.00;0.00;;;;;;;11.63;100.00;99897.78;6242016;22;20015;-88
2023/07/27 03:23:07;;;;;;;0.57;0.57;;;;;;;11.60;100.00;99890.38;6243682;22;20008;-88
2023/07/27 03:25:33;;;;;;;0.52;0.38;;;;;;;11.67;100.00;99896.47;6218561;22;20403;-88
2023/07/27 03:28:03;;;;;;;0.00;0.00;;;;;;;11.59;100.00;99894.34;6218418;22;20099;-88
2023/07/27 03:30:28;;;;;;;0.22;0.17;;;;;;;11.66;100.00;99905.22;6243566;22;20015;-88
2023/07/27 03:32:54;;;;;;;0.43;0.43;;;;;;;11.64;100.00;99902.13;6242459;22;20011;-88
2023/07/27 03:35:19;;;;;;;0.68;0.47;;;;;;;11.67;100.00;99907.56;6241681;22;20004;-88
2023/07/27 03:37:45;;;;;;;0.20;0.20;;;;;;;11.66;100.00;99906.00;6191119;22;20008;-88
2023/07/27 03:40:11;;;;;;;0.20;0.20;;;;;;;11.67;100.00;99912.34;6242051;22;20012;-88
2023/07/27 03:42:36;;;;;;;0.35;0.35;;;;;;;11.69;100.00;99913.44;6243374;22;20089;-87
2023/07/27 03:45:02;;;;;;;0.00;0.00;;;;;;;11.64;100.00;99907.69;6217941;22;20020;-87
2023/07/27 03:47:28;;;;;;;0.52;0.52;;;;;;;11.68;100.00;99911.13;6218200;22;20440;-88
2023/07/27 03:49:54;;;;;;;0.32;0.32;;;;;;;11.66;100.00;99908.78;6269888;22;20000;-87
2023/07/27 03:52:19;;;;;;;0.25;0.20;;;;;;;11.69;100.00;99923.78;6270013;22;20015;-88
2023/07/27 03:54:45;;;;;;;0.15;0.15;;;;;;;11.70;100.00;99923.34;6243462;22;20304;-88
2023/07/27 03:57:10;;;;;;;0.65;0.65;;;;;;;11.63;100.00;99917.25;6244560;22;20086;-88
2023/07/27 03:59:36;;;;;;;0.80;0.80;;;;;;;11.68;100.00;99930.59;6245377;22;20321;-88
2023/07/27 04:02:02;;;;;;;0.30;0.30;;;;;;;11.61;100.00;99937.13;6244894;22;20114;-88
2023/07/27 06:17:04;;;;;;;0.10;0.10;;;;;;;18.45;85.26;99953.81;6097224;23;1719037;-87
2023/07/27 06:19:30;;;;;;;0.30;0.30;;;;;;;18.62;83.57;99949.97;6121058;23;20095;-87
2023/07/27 06:21:56;;;;;;;0.17;0.17;;;;;;;18.79;76.81;99941.72;6148397;23;20009;-87
2023/07/27 06:24:21;;;;;;;0.10;0.10;;;;;;;19.15;78.68;99951.50;6148969;23;20072;-87
2023/07/27 06:26:47;;;;;;;0.35;0.30;;;;;;;19.32;87.09;99952.41;6150043;23;20064;-87
2023/07/27 06:29:12;;;;;;;0.10;0.10;;;;;;;19.39;88.08;99948.38;6149351;23;20017;-87
2023/07/27 06:31:38;;;;;;;0.20;0.20;;;;;;;19.43;81.20;99941.28;6149720;23;20114;-87
2023/07/27 06:34:04;;;;;;;0.10;0.10;;;;;;;19.68;83.00;99952.94;6148506;23;20132;-87
2023/07/27 06:36:29;;;;;;;0.13;0.10;;;;;;;19.65;82.93;99943.47;6123289;23;20013;-87
2023/07/27 06:38:54;;;;;;;0.32;0.32;;;;;;;19.68;79.14;99956.53;6149876;23;20291;-87
2023/07/27 06:41:25;;;;;;;0.30;0.30;;;;;;;19.90;78.86;99941.81;6151000;23;20012;-87
2023/07/27 06:43:53;;;;;;;0.28;0.28;;;;;;;20.07;78.83;99956.75;6100710;23;20028;-87
2023/07/27 06:46:19;;;;;;;0.00;0.00;;;;;;;20.31;77.39;99945.88;6149932;23;20009;-87
2023/07/27 06:48:48;;;;;;;0.10;0.10;;;;;;;20.44;72.70;99960.28;6123308;23;20017;-87
2023/07/27 06:51:14;;;;;;;0.25;0.25;;;;;;;20.67;73.51;99951.88;6123724;23;20084;-87
2023/07/27 06:53:39;;;;;;;3.20;1.17;;;;;;;20.85;71.32;99957.06;6124469;23;20437;-87
2023/07/27 06:56:05;;;;;;;0.95;0.63;;;;;;;20.82;71.56;99964.50;6123324;23;20060;-87
2023/07/27 06:58:31;;;;;;;0.10;0.10;;;;;;;20.96;63.98;99957.06;6150059;23;20454;-87
2023/07/27 07:00:57;;;;;;;0.47;0.20;;;;;;;21.13;65.84;99960.72;6149045;23;20076;-87
2023/07/27 07:03:22;;;;;;;0.85;0.85;;;;;;;21.35;64.58;99955.06;6148109;23;20017;-88
2023/07/27 07:05:48;;;;;;;0.88;0.30;;;;;;;21.31;56.06;99960.19;6112413;23;20426;-89
2023/07/27 07:08:14;;;;;;;0.10;0.10;;;;;;;21.18;51.32;99957.13;6093226;23;20179;-88
2023/07/27 07:10:39;;;;;;;1.23;0.63;;;;;;;21.09;51.16;99960.16;6093736;23;20385;-88
2023/07/27 07:13:05;;;;;;;0.20;0.20;;;;;;;21.22;50.60;99968.94;6093693;23;20021;-88
2023/07/27 07:15:30;;;;;;;0.15;0.15;;;;;;;21.13;50.48;99972.00;6071299;23;20040;-88
2023/07/27 07:17:56;;;;;;;0.38;0.38;;;;;;;21.37;48.94;99965.84;6071163;23;20147;-88
2023/07/27 07:20:24;;;;;;;0.20;0.20;;;;;;;21.09;50.93;99929.16;6094027;23;20424;-87
2023/07/27 07:22:49;;;;;;;0.10;0.10;;;;;;;21.19;50.42;99947.38;6097671;23;20013;-88
2023/07/27 07:25:16;;;;;;;0.00;0.00;;;;;;;21.42;50.36;99969.97;6120813;23;20453;-88
2023/07/27 07:27:42;;;;;;;0.57;0.55;;;;;;;21.19;47.98;99972.75;6121688;23;20013;-88
2023/07/27 07:30:08;;;;;;;0.30;0.30;;;;;;;21.11;49.03;99971.69;6096669;23;20342;-88
2023/07/27 07:32:34;;;;;;;0.10;0.10;;;;;;;21.18;49.73;99962.00;6121652;23;20005;-88
2023/07/27 07:35:00;;;;;;;0.15;0.15;;;;;;;21.44;49.38;99970.19;6071698;23;20023;-88
2023/07/27 07:37:25;;;;;;;0.10;0.10;;;;;;;21.61;46.98;99965.31;6120758;23;20060;-88
2023/07/27 07:39:51;;;;;;;0.82;0.82;;;;;;;21.69;45.15;99974.81;6122064;23;20089;-88
2023/07/27 07:42:17;;;;;;;0.43;0.43;;;;;;;21.65;46.58;99965.81;6096491;23;20061;-89
2023/07/27 07:44:42;;;;;;;0.40;0.40;;;;;;;21.70;45.81;99968.66;6121179;23;20013;-89
2023/07/27 07:47:08;;;;;;;0.40;0.40;;;;;;;21.66;44.78;99967.38;6119539;23;20490;-88
2023/07/27 07:49:34;;;;;;;0.30;0.30;;;;;;;21.74;44.77;99965.56;6095743;23;20002;-89
2023/07/27 07:51:59;;;;;;;0.25;0.20;;;;;;;21.76;45.41;99966.56;6097207;23;20019;-88
2023/07/27 07:54:29;;;;;;;1.08;0.75;;;;;;;21.77;44.70;99953.22;6096450;23;20017;-89
2023/07/27 07:56:55;;;;;;;0.20;0.20;;;;;;;21.99;44.80;99943.97;6122394;23;20014;-89
2023/07/27 07:59:21;;;;;;;0.08;0.08;;;;;;;22.43;44.08;99954.34;6096323;23;20017;-89
2023/07/27 08:01:46;;;;;;;0.55;0.10;;;;;;;22.53;42.74;99972.50;6097317;23;20010;-88
2023/07/27 08:04:12;;;;;;;0.13;0.13;;;;;;;22.85;43.55;99956.69;6093658;23;20013;-89
2023/07/27 08:06:37;;;;;;;0.10;0.10;;;;;;;23.02;42.44;99960.19;6097490;23;20072;-89
2023/07/27 08:09:03;;;;;;;0.25;0.25;;;;;;;22.88;43.46;99952.84;6120680;23;20021;-88
2023/07/27 08:11:29;;;;;;;0.43;0.32;;;;;;;23.12;42.41;99958.56;6073509;23;20005;-89
2023/07/27 08:13:55;;;;;;;0.43;0.40;;;;;;;22.93;42.65;99951.25;6096168;23;20311;-89
2023/07/27 08:16:21;;;;;;;0.20;0.13;;;;;;;23.17;43.91;99949.25;6096078;23;20056;-88
2023/07/27 08:18:46;;;;;;;0.57;0.57;;;;;;;23.17;42.09;99946.44;6096025;23;20063;-89
2023/07/27 08:21:12;;;;;;;0.22;0.20;;;;;;;23.37;41.86;99950.16;6071544;23;20049;-89
2023/07/27 08:23:38;;;;;;;0.20;0.20;;;;;;;23.40;41.09;99934.94;6073566;23;20096;-89
2023/07/27 08:26:07;;;;;;;0.43;0.43;;;;;;;23.49;41.56;99934.63;6120554;23;20029;-89
2023/07/27 08:28:33;;;;;;;0.68;0.60;;;;;;;23.79;40.73;99937.41;6097929;23;20035;-89
2023/07/27 08:31:01;;;;;;;0.45;0.20;;;;;;;23.81;41.02;99935.59;6096130;23;20346;-89
2023/07/27 08:33:26;;;;;;;0.20;0.15;;;;;;;23.80;40.81;99956.72;6096862;23;20017;-89
2023/07/27 08:35:52;;;;;;;0.10;0.10;;;;;;;23.88;40.60;99946.31;6094850;23;20330;-90
2023/07/27 08:38:17;;;;;;;0.10;0.10;;;;;;;23.76;40.81;99947.75;6096480;23;20706;-90
2023/07/27 08:40:58;;;;;;;0.10;0.10;;;;;;;23.90;39.84;99923.88;6072826;23;20013;-89
2023/07/27 08:43:24;;;;;;;1.52;0.85;;;;;;;23.58;41.22;99926.53;6097052;23;20032;-89
2023/07/27 08:45:50;;;;;;;0.43;0.40;;;;;;;23.41;41.43;99939.31;6095795;23;20025;-89
2023/07/27 08:48:16;;;;;;;0.20;0.20;;;;;;;23.62;41.54;99931.91;6096226;23;20016;-88
2023/07/27 08:50:43;;;;;;;0.25;0.25;;;;;;;23.87;42.00;99941.19;6096868;23;20009;-88
2023/07/27 08:53:10;;;;;;;0.20;0.20;;;;;;;24.05;40.71;99941.25;6099207;23;20037;-88
2023/07/27 08:55:36;;;;;;;1.13;0.95;;;;;;;24.14;39.95;99929.56;6099155;23;20017;-89
2023/07/27 08:58:02;;;;;;;0.20;0.20;;;;;;;23.87;38.76;99941.94;6098129;23;20065;-88
2023/07/27 09:00:28;;;;;;;0.90;0.90;;;;;;;23.63;40.77;99939.09;6098754;23;20013;-88
2023/07/27 09:02:53;;;;;;;0.22;0.20;;;;;;;23.75;41.15;99926.38;6098006;23;20020;-89
2023/07/27 09:05:19;;;;;;;0.15;0.15;;;;;;;24.06;41.39;99925.75;6121175;23;20014;-89
2023/07/27 09:07:48;;;;;;;0.50;0.50;;;;;;;24.53;41.48;99922.63;6074283;23;20013;-89
2023/07/27 09:10:15;;;;;;;0.45;0.45;;;;;;;24.82;39.04;99916.03;6119846;23;20015;-88
2023/07/27 09:12:42;;;;;;;0.10;0.10;;;;;;;25.09;39.16;99916.91;6120365;23;20021;-89
2023/07/27 09:15:15;;;;;;;0.40;0.40;;;;;;;24.39;37.82;99918.16;6120811;23;20024;-89
2023/07/27 09:17:40;;;;;;;0.10;0.10;;;;;;;24.24;39.96;99934.84;6097742;23;20468;-89
2023/07/27 09:20:11;;;;;;;0.28;0.25;;;;;;;24.01;39.54;99923.78;6094742;23;20423;-89
2023/07/27 09:22:37;;;;;;;0.55;0.55;;;;;;;24.52;40.35;99918.25;6073599;23;20088;-89
2023/07/27 09:25:05;;;;;;;0.45;0.45;;;;;;;24.80;37.16;99929.97;6118474;23;20053;-89
2023/07/27 09:27:41;;;;;;;0.10;0.10;;;;;;;25.08;36.75;99910.47;6096874;23;20017;-89
2023/07/27 09:30:06;;;;;;;0.22;0.22;;;;;;;25.57;36.47;99918.69;6094002;23;20084;-89
2023/07/27 09:32:35;;;;;;;0.40;0.40;;;;;;;25.85;36.04;99924.63;6118157;23;20414;-89
2023/07/27 09:35:01;;;;;;;0.32;0.22;;;;;;;25.88;35.06;99923.50;6119839;23;20029;-89
2023/07/27 09:37:28;;;;;;;0.10;0.10;;;;;;;25.69;34.45;99911.50;6121650;23;20017;-89
2023/07/27 09:40:12;;;;;;;0.35;0.35;;;;;;;25.75;34.80;99908.56;6095993;23;20064;-88
2023/07/27 09:42:39;;;;;;;0.55;0.55;;;;;;;25.93;35.70;99907.66;6095065;23;20017;-89
2023/07/27 09:45:05;;;;;;;0.10;0.10;;;;;;;25.79;33.94;99915.44;6120778;23;20010;-88
2023/07/27 09:47:31;;;;;;;0.28;0.28;;;;;;;25.93;34.62;99905.59;6148349;23;20465;-90
2023/07/27 09:50:00;;;;;;;0.38;0.38;;;;;;;26.73;34.88;99904.16;6119068;23;20010;-89
2023/07/27 09:52:29;;;;;;;0.30;0.30;;;;;;;27.12;34.47;99902.50;6147290;23;20018;-89
2023/07/27 09:54:56;;;;;;;0.40;0.40;;;;;;;26.75;30.89;99895.84;6122425;23;20014;-89
2023/07/27 10:13:27;;;;;;;0.57;0.57;;;;;;;26.38;32.25;99899.78;6147928;23;20028;-93
2023/07/27 10:15:54;;;;;;;1.25;0.68;;;;;;;26.44;32.90;99893.97;6121263;23;20018;-95
2023/07/27 10:18:25;;;;;;;0.32;0.32;;;;;;;26.53;32.98;99867.91;6095783;23;20061;-93
2023/07/27 10:36:03;;;;;;;0.20;0.20;;;;;;;27.79;30.78;99881.56;5016112;27;1453293;-88
2023/07/27 10:38:32;;;;;;;0.47;0.47;;;;;;;27.75;31.61;99870.53;5073625;28;20245;-88
2023/07/27 10:41:11;;;;;;;0.40;0.32;;;;;;;27.22;32.53;99863.66;5045068;28;20032;-89
2023/07/27 10:43:37;;;;;;;0.85;0.57;;;;;;;26.86;32.14;99850.06;5039198;28;20048;-88
2023/07/27 10:46:02;;;;;;;0.32;0.32;;;;;;;27.03;31.85;99828.97;5044729;28;20538;-89
2023/07/27 10:48:28;;;;;;;0.60;0.52;;;;;;;27.25;32.13;99849.09;5084976;28;20123;-89
2023/07/27 10:50:53;;;;;;;0.60;0.45;;;;;;;27.02;32.25;99867.28;5047061;28;20395;-89
2023/07/27 10:53:19;;;;;;;0.50;0.50;;;;;;;26.70;33.52;99839.81;5051459;28;20381;-89
2023/07/27 10:55:45;;;;;;;0.57;0.57;;;;;;;26.73;33.31;99858.63;5088697;28;20056;-88
2023/07/27 10:58:12;;;;;;;0.30;0.30;;;;;;;26.58;33.52;99852.78;5059857;28;20121;-88
2023/07/27 11:00:37;;;;;;;0.90;0.52;;;;;;;26.43;32.23;99852.63;5040995;28;20064;-89
2023/07/27 11:03:03;;;;;;;0.52;0.52;;;;;;;26.34;32.75;99851.00;5046790;28;20454;-89
2023/07/27 11:05:29;;;;;;;0.20;0.20;;;;;;;26.55;32.88;99808.38;5056153;28;20056;-88
2023/07/27 11:08:01;;;;;;;0.10;0.10;;;;;;;26.83;33.06;99850.38;5063517;28;20096;-89
2023/07/27 11:10:30;;;;;;;0.47;0.38;;;;;;;26.33;32.92;99843.03;5072269;28;20045;-89
2023/07/27 11:12:56;;;;;;;0.38;0.20;;;;;;;26.34;33.83;99848.16;5063300;28;20518;-89
2023/07/27 11:15:22;;;;;;;0.20;0.20;;;;;;;26.54;33.58;99848.75;5062178;28;20048;-89
2023/07/27 11:17:49;;;;;;;0.20;0.20;;;;;;;25.94;34.08;99833.25;5080246;28;20086;-89
2023/07/27 11:20:17;;;;;;;0.65;0.65;;;;;;;26.03;36.03;99845.47;5060434;28;20102;-89
2023/07/27 11:22:42;;;;;;;0.10;0.10;;;;;;;26.34;35.38;99833.19;5045713;28;20441;-89
2023/07/27 11:25:09;;;;;;;0.32;0.30;;;;;;;26.65;34.91;99835.03;5062735;28;20099;-89
2023/07/27 11:27:37;;;;;;;0.77;0.77;;;;;;;27.00;34.49;99845.06;5064132;28;20102;-88
2023/07/27 11:30:06;;;;;;;0.60;0.55;;;;;;;26.92;33.29;99838.56;5082515;28;20931;-89
2023/07/27 11:32:32;;;;;;;0.20;0.20;;;;;;;27.06;34.96;99839.22;5091165;28;20045;-89
2023/07/27 11:34:57;;;;;;;0.17;0.17;;;;;;;26.73;34.78;99827.31;5049084;28;20079;-89
2023/07/27 11:37:26;;;;;;;0.10;0.10;;;;;;;26.62;34.69;99819.06;5046709;28;20075;-89
2023/07/27 11:39:52;;;;;;;0.47;0.40;;;;;;;26.79;34.99;99827.97;5054733;28;20024;-89
2023/07/27 11:42:29;;;;;;;2.60;0.47;;;;;;;26.81;34.86;99819.63;5053493;28;20062;-89
2023/07/27 11:44:57;;;;;;;0.22;0.22;;;;;;;27.47;34.59;99810.72;5055393;28;20024;-88
2023/07/27 11:47:23;;;;;;;0.25;0.25;;;;;;;27.92;33.35;99807.34;5046031;28;20040;-89
2023/07/27 11:49:50;;;;;;;0.28;0.28;;;;;;;27.68;33.02;99797.16;5039006;28;20076;-87
2023/07/27 11:52:20;;;;;;;0.73;0.73;;;;;;;27.63;33.15;99805.88;5048064;28;20036;-88
2023/07/27 11:54:51;;;;;;;0.93;0.50;;;;;;;27.25;34.25;99808.47;5026685;28;20048;-88
2023/07/27 11:57:16;;;;;;;0.60;0.60;;;;;;;26.70;33.85;99808.53;5053845;28;20056;-88
2023/07/27 11:59:42;;;;;;;0.20;0.20;;;;;;;25.90;34.27;99780.91;5059688;28;20491;-89
2023/07/27 12:02:08;;;;;;;0.17;0.17;;;;;;;25.60;35.17;99784.09;5053689;28;20029;-89
2023/07/27 12:04:34;;;;;;;0.10;0.10;;;;;;;25.59;36.13;99791.13;5024665;28;20455;-88
2023/07/27 12:06:59;;;;;;;0.20;0.20;;;;;;;25.32;35.63;99787.47;5041789;28;20051;-88
2023/07/27 12:09:26;;;;;;;0.25;0.25;;;;;;;25.37;36.90;99751.75;5065836;28;20036;-88
2023/07/27 12:11:51;;;;;;;0.40;0.40;;;;;;;25.78;35.47;99773.94;5067253;28;20124;-88
2023/07/27 12:14:20;;;;;;;0.10;0.10;;;;;;;25.97;35.84;99777.38;5068457;28;20075;-88
2023/07/27 12:16:47;;;;;;;0.28;0.28;;;;;;;26.62;36.02;99779.25;5040076;28;20028;-88
2023/07/27 12:19:13;;;;;;;0.40;0.40;;;;;;;27.18;34.33;99772.91;5038653;28;20048;-89
2023/07/27 12:21:39;;;;;;;0.80;0.68;;;;;;;27.67;33.77;99752.91;5039355;28;20233;-89
2023/07/27 12:24:08;;;;;;;0.68;0.68;;;;;;;28.02;31.88;99767.69;5059912;28;20056;-89
2023/07/27 12:26:35;;;;;;;0.45;0.45;;;;;;;27.99;31.99;99743.13;5036085;28;20052;-88
2023/07/27 12:29:01;;;;;;;0.30;0.30;;;;;;;28.21;32.54;99759.59;5048142;28;20136;-88
2023/07/27 12:31:26;;;;;;;0.80;0.70;;;;;;;28.08;32.54;99725.47;5035779;28;20497;-88
2023/07/27 12:33:52;;;;;;;0.40;0.40;;;;;;;27.83;30.84;99765.13;5043159;28;20033;-89
2023/07/27 12:36:18;;;;;;;0.35;0.35;;;;;;;27.61;33.37;99746.63;5061391;28;20531;-88
2023/07/27 12:38:43;;;;;;;0.22;0.20;;;;;;;27.82;33.37;99738.69;5050169;28;20087;-88
2023/07/27 12:41:09;;;;;;;1.88;0.60;;;;;;;28.30;32.25;99744.00;5035797;28;20091;-88
2023/07/27 12:43:35;;;;;;;0.47;0.43;;;;;;;28.44;31.79;99745.34;5059105;28;20028;-88
2023/07/27 12:46:00;;;;;;;0.28;0.28;;;;;;;28.40;29.97;99740.03;5046954;28;20440;-88
2023/07/27 12:48:27;;;;;;;0.32;0.32;;;;;;;27.83;29.88;99736.63;5048622;28;20051;-87
2023/07/27 12:50:52;;;;;;;0.45;0.45;;;;;;;27.93;31.24;99731.16;5048808;28;20039;-88
2023/07/27 12:53:18;;;;;;;0.40;0.40;;;;;;;28.18;31.09;99746.47;5066982;28;20036;-88
2023/07/27 12:55:43;;;;;;;6.35;2.17;;;;;;;27.78;30.78;99744.00;5040985;28;20094;-88
2023/07/27 12:58:09;;;;;;;0.38;0.38;;;;;;;27.82;32.42;99741.56;5063038;28;20514;-88
2023/07/27 13:00:34;;;;;;;0.40;0.40;;;;;;;27.79;32.47;99733.38;5053642;28;20032;-87
2023/07/27 13:03:00;;;;;;;0.60;0.40;;;;;;;27.82;32.35;99721.59;5048678;28;20028;-88
2023/07/27 13:05:25;;;;;;;0.55;0.55;;;;;;;27.90;31.22;99732.28;5064067;28;20039;-88
2023/07/27 13:07:51;;;;;;;0.20;0.20;;;;;;;27.93;31.93;99714.81;5050438;28;20532;-88
2023/07/27 13:10:19;;;;;;;0.25;0.20;;;;;;;27.88;32.51;99695.03;5044416;28;20618;-88
2023/07/27 13:12:45;;;;;;;0.30;0.30;;;;;;;27.87;31.77;99722.00;5054882;28;20395;-88
2023/07/27 13:15:10;;;;;;;0.30;0.30;;;;;;;27.83;30.73;99717.44;5063476;28;20032;-88
2023/07/27 13:17:38;;;;;;;0.65;0.65;;;;;;;28.08;31.15;99705.53;5060809;28;20067;-88
2023/07/27 13:20:04;;;;;;;0.20;0.20;;;;;;;28.34;31.65;99690.22;5067337;28;20502;-89
2023/07/27 13:22:29;;;;;;;0.25;0.25;;;;;;;28.18;30.52;99689.44;5047408;28;20078;-88
2023/07/27 13:24:55;;;;;;;0.20;0.20;;;;;;;28.10;31.27;99714.31;5054523;28;20063;-88
2023/07/27 13:27:21;;;;;;;0.40;0.40;;;;;;;28.13;31.93;99702.53;5042175;28;20468;-89
2023/07/27 13:29:47;;;;;;;0.43;0.30;;;;;;;27.93;31.59;99699.78;5075679;28;20049;-88
2023/07/27 13:32:13;;;;;;;0.50;0.43;;;;;;;27.57;30.58;99705.56;5069289;28;20032;-88
2023/07/27 13:34:38;;;;;;;0.80;0.80;;;;;;;27.06;32.05;99702.59;5036633;28;20044;-88
2023/07/27 13:37:04;;;;;;;2.20;0.40;;;;;;;26.81;33.03;99708.66;5038229;28;20039;-88
2023/07/27 13:39:29;;;;;;;0.57;0.40;;;;;;;26.66;32.56;99694.31;5044231;28;20074;-89
2023/07/27 13:41:55;;;;;;;0.35;0.35;;;;;;;26.31;32.11;99709.94;5038647;28;20028;-89
2023/07/27 13:44:21;;;;;;;0.47;0.47;;;;;;;26.35;32.76;99703.91;5045365;28;20450;-89
2023/07/27 13:46:46;;;;;;;0.20;0.20;;;;;;;26.71;31.49;99701.94;5038651;28;20063;-90
2023/07/27 13:49:12;;;;;;;0.20;0.20;;;;;;;26.98;32.37;99698.94;5054486;28;20109;-89
2023/07/27 13:51:37;;;;;;;0.22;0.22;;;;;;;27.08;30.69;99712.09;5052264;28;20167;-89
2023/07/27 13:54:03;;;;;;;0.10;0.10;;;;;;;27.24;31.59;99701.56;5064618;28;20073;-89
2023/07/27 13:56:30;;;;;;;0.43;0.43;;;;;;;27.39;32.42;99701.63;5043262;28;20048;-89
2023/07/27 13:58:55;;;;;;;0.30;0.30;;;;;;;27.58;31.36;99704.25;5045694;28;20743;-89
2023/07/27 14:01:21;;;;;;;0.30;0.30;;;;;;;27.45;31.25;99695.78;5063825;28;20087;-89
2023/07/27 14:03:46;;;;;;;0.30;0.30;;;;;;;27.16;30.94;99689.38;5061671;28;20028;-89
2023/07/27 14:06:12;;;;;;;0.82;0.43;;;;;;;26.82;33.05;99684.56;5057562;28;20027;-90
2023/07/27 14:08:38;;;;;;;0.63;0.55;;;;;;;26.68;33.23;99686.00;5043177;28;20528;-89
2023/07/27 14:11:03;;;;;;;0.35;0.32;;;;;;;26.35;34.25;99692.53;5053433;28;20056;-89
2023/07/27 14:13:30;;;;;;;0.43;0.43;;;;;;;25.82;35.28;99680.59;5058184;28;20044;-90
2023/07/27 14:15:55;;;;;;;0.47;0.47;;;;;;;25.77;34.52;99659.53;5083565;28;20426;-93
2023/07/27 14:18:21;;;;;;;0.32;0.32;;;;;;;25.83;34.24;99660.16;5060247;28;20050;-92
2023/07/27 14:20:47;;;;;;;0.65;0.65;;;;;;;26.08;34.47;99663.47;5046577;28;20027;-89
2023/07/27 14:23:13;;;;;;;0.20;0.20;;;;;;;26.26;35.69;99668.19;5057960;28;20056;-91
2023/07/27 14:25:39;;;;;;;0.73;0.45;;;;;;;26.53;35.71;99665.94;5063374;28;20511;-91
2023/07/27 14:28:04;;;;;;;0.40;0.40;;;;;;;26.46;35.64;99678.03;5029308;28;20380;-88
2023/07/27 14:30:30;;;;;;;2.03;0.43;;;;;;;25.71;35.98;99644.69;5045470;28;20033;-87
2023/07/27 14:32:56;;;;;;;0.40;0.40;;;;;;;25.83;36.22;99668.69;5072361;28;20052;-88
2023/07/27 14:35:22;;;;;;;0.38;0.38;;;;;;;25.72;36.33;99642.63;5031160;28;20063;-87
2023/07/27 14:37:47;;;;;;;1.05;0.60;;;;;;;26.01;35.46;99672.66;5071688;28;20036;-87
2023/07/27 14:40:13;;;;;;;0.35;0.35;;;;;;;25.56;35.95;99670.06;5063144;28;20056;-87
2023/07/27 14:42:39;;;;;;;0.43;0.43;;;;;;;25.26;36.10;99644.13;5072786;28;20535;-89
2023/07/27 14:45:05;;;;;;;1.30;0.93;;;;;;;25.52;35.99;99672.44;5045316;28;20130;-87
2023/07/27 14:47:30;;;;;;;0.50;0.50;;;;;;;25.52;35.47;99672.44;5084361;28;20036;-89
2023/07/27 14:49:59;;;;;;;0.10;0.10;;;;;;;25.57;35.74;99674.44;5080618;28;20038;-88
2023/07/27 14:52:24;;;;;;;2.35;1.35;;;;;;;25.62;36.05;99655.75;5066267;28;20237;-89
2023/07/27 14:54:50;;;;;;;0.45;0.45;;;;;;;25.50;36.19;99661.66;5077678;28;20047;-88
2023/07/27 14:57:16;;;;;;;0.55;0.55;;;;;;;25.51;36.12;99645.38;5049961;28;20475;-88
2023/07/27 14:59:41;;;;;;;0.30;0.30;;;;;;;25.72;35.47;99643.38;5074620;28;20384;-89
2023/07/27 15:02:07;;;;;;;0.45;0.45;;;;;;;25.96;35.80;99651.56;5029097;28;20064;-88
2023/07/27 15:04:32;;;;;;;0.47;0.40;;;;;;;26.11;35.05;99638.84;5064833;28;20125;-88
2023/07/27 15:06:58;;;;;;;0.00;0.00;;;;;;;26.07;34.33;99644.88;5069319;28;20384;-88
2023/07/27 15:09:24;;;;;;;0.35;0.35;;;;;;;26.07;33.00;99644.09;5068815;28;20028;-88
2023/07/27 15:11:49;;;;;;;0.47;0.40;;;;;;;26.10;33.63;99652.28;5062130;28;20031;-88
2023/07/27 15:14:15;;;;;;;0.17;0.17;;;;;;;26.11;33.57;99638.84;5028766;28;20036;-88
2023/07/27 15:16:41;;;;;;;0.25;0.20;;;;;;;26.12;34.89;99637.53;5076143;28;20028;-86